Time;durP1;ratioP1;P1;durP2;ratioP2;P2;SDS_P1;SDS_P2;PMS_P1;PMS_P2;Temp;Humidity;BMP_temperature;BMP_pressure;BME280_temperature;BME280_humidity;BME280_pressure;Samples;Min_cycle;Max_cycle;Signal;HPM_P1;HPM_P2
2022/06/24 00:00:29;;;;;;;5.03;1.83;;;;;;;;;;5054018;28;20017;-87
2022/06/24 00:02:55;;;;;;;5.30;2.40;;;;;;;;;;5036075;28;20029;-90
2022/06/24 00:05:21;;;;;;;5.85;1.85;;;;;;;;;;5054095;28;20013;-89
2022/06/24 00:07:48;;;;;;;8.10;2.08;;;;;;;;;;5053681;28;20473;-90
2022/06/24 00:10:15;;;;;;;7.85;1.95;;;;;;;;;;5053338;28;20046;-87
2022/06/24 00:12:41;;;;;;;5.97;1.98;;;;;;;;;;5053323;28;20028;-87
2022/06/24 00:15:08;;;;;;;4.60;1.95;;;;;;;;;;5035531;28;20471;-90
2022/06/24 00:17:34;;;;;;;6.10;2.15;;;;;;;;;;5035461;28;20469;-89
2022/06/24 00:20:01;;;;;;;5.50;2.33;;;;;;;;;;5032599;28;20021;-90
2022/06/24 00:22:31;;;;;;;7.22;2.10;;;;;;;;;;5034565;28;20121;-88
2022/06/24 00:25:09;;;;;;;5.13;2.55;;;;;;;;;;5053327;28;20041;-89
2022/06/24 00:27:35;;;;;;;6.15;2.33;;;;;;;;;;5036834;28;20476;-88
2022/06/24 00:30:11;;;;;;;5.47;2.28;;;;;;;;;;5053293;28;20029;-90
2022/06/24 00:32:37;;;;;;;5.55;2.63;;;;;;;;;;5035219;28;20028;-89
2022/06/24 00:35:04;;;;;;;4.95;2.63;;;;;;;;;;5018773;28;20067;-89
2022/06/24 00:37:31;;;;;;;9.90;2.75;;;;;;;;;;5034935;28;20040;-89
2022/06/24 00:39:59;;;;;;;6.85;2.80;;;;;;;;;;5035536;28;20025;-89
2022/06/24 00:42:25;;;;;;;7.28;2.65;;;;;;;;;;5036570;28;20035;-88
2022/06/24 00:44:59;;;;;;;8.80;2.67;;;;;;;;;;5053303;28;20116;-87
2022/06/24 00:47:25;;;;;;;6.43;2.63;;;;;;;;;;5035182;28;20033;-90
2022/06/24 00:49:53;;;;;;;7.10;2.60;;;;;;;;;;5035271;28;20029;-90
2022/06/24 00:52:19;;;;;;;10.98;3.00;;;;;;;;;;5035517;28;20438;-90
2022/06/24 00:54:45;;;;;;;6.85;2.60;;;;;;;;;;5034726;28;20025;-90
2022/06/24 00:57:12;;;;;;;12.77;2.90;;;;;;;;;;5053135;28;20025;-89
2022/06/24 00:59:38;;;;;;;6.18;2.50;;;;;;;;;;5035071;28;20025;-88
2022/06/24 01:02:05;;;;;;;6.00;2.35;;;;;;;;;;5057940;28;20088;-89
2022/06/24 01:04:32;;;;;;;9.13;3.33;;;;;;;;;;5038796;28;20032;-91
2022/06/24 01:06:58;;;;;;;11.52;3.17;;;;;;;;;;5053447;28;20025;-89
2022/06/24 01:09:24;;;;;;;5.93;2.47;;;;;;;;;;5054800;28;20028;-89
2022/06/24 01:11:51;;;;;;;7.88;2.90;;;;;;;;;;5051629;28;20017;-91
2022/06/24 01:14:17;;;;;;;6.90;2.63;;;;;;;;;;5045497;28;20373;-89
2022/06/24 01:16:43;;;;;;;5.25;2.55;;;;;;;;;;5044707;28;20055;-89
2022/06/24 01:19:10;;;;;;;10.82;2.88;;;;;;;;;;5042873;28;20036;-89
2022/06/24 01:21:36;;;;;;;6.72;2.70;;;;;;;;;;5033730;28;20033;-89
2022/06/24 01:24:08;;;;;;;8.55;3.00;;;;;;;;;;5033550;28;20038;-88
2022/06/24 01:26:35;;;;;;;6.43;3.10;;;;;;;;;;5034179;28;20025;-89
2022/06/24 01:29:01;;;;;;;4.82;2.63;;;;;;;;;;5036954;28;20112;-91
2022/06/24 01:31:27;;;;;;;6.63;2.80;;;;;;;;;;5033547;28;20022;-88
2022/06/24 01:33:53;;;;;;;16.98;2.95;;;;;;;;;;5032259;28;20026;-91
2022/06/24 01:36:19;;;;;;;5.05;2.40;;;;;;;;;;5032639;28;20028;-91
2022/06/24 01:38:45;;;;;;;4.80;2.38;;;;;;;;;;5034039;28;20026;-89
2022/06/24 01:41:11;;;;;;;6.85;2.97;;;;;;;;;;5033473;28;20071;-88
2022/06/24 01:43:37;;;;;;;8.35;2.63;;;;;;;;;;5035672;28;20025;-87
2022/06/24 01:46:03;;;;;;;11.32;2.72;;;;;;;;;;5040867;28;20527;-90
2022/06/24 01:48:30;;;;;;;11.45;3.20;;;;;;;;;;5041644;28;20021;-88
2022/06/24 01:50:56;;;;;;;7.82;2.40;;;;;;;;;;5043526;28;20154;-90
2022/06/24 01:53:22;;;;;;;5.05;2.35;;;;;;;;;;5045945;28;20055;-92
2022/06/24 01:55:48;;;;;;;5.50;2.60;;;;;;;;;;5044934;28;20378;-90
2022/06/24 01:58:14;;;;;;;10.20;3.65;;;;;;;;;;5044700;28;20028;-91
2022/06/24 02:00:40;;;;;;;11.45;3.05;;;;;;;;;;5039986;28;20565;-90
2022/06/24 02:03:06;;;;;;;6.25;2.75;;;;;;;;;;5039564;28;20021;-88
2022/06/24 02:05:32;;;;;;;14.18;2.67;;;;;;;;;;5039822;28;20397;-90
2022/06/24 02:07:59;;;;;;;10.00;2.95;;;;;;;;;;5039677;28;20032;-91
2022/06/24 02:13:29;;;;;;;8.88;3.05;;;;;;;;;;5057654;28;20044;-90
2022/06/24 02:15:55;;;;;;;11.30;2.95;;;;;;;;;;5057804;28;20024;-90
2022/06/24 02:18:22;;;;;;;12.20;3.30;;;;;;;;;;5057428;28;20507;-89
2022/06/24 02:20:48;;;;;;;6.95;3.03;;;;;;;;;;5035945;28;20025;-90
2022/06/24 02:23:14;;;;;;;11.60;3.85;;;;;;;;;;5053694;28;20036;-87
2022/06/24 02:25:40;;;;;;;9.32;4.18;;;;;;;;;;5057576;28;20451;-88
2022/06/24 02:28:06;;;;;;;10.80;3.50;;;;;;;;;;5039040;28;20385;-89
2022/06/24 02:30:32;;;;;;;13.10;3.70;;;;;;;;;;5057633;28;20025;-86
2022/06/24 02:32:58;;;;;;;11.27;3.40;;;;;;;;;;5039380;28;20036;-90
2022/06/24 02:35:24;;;;;;;13.07;3.97;;;;;;;;;;5057384;28;20025;-89
2022/06/24 02:37:50;;;;;;;12.02;3.25;;;;;;;;;;5039297;28;20389;-89
2022/06/24 02:43:00;;;;;;;9.77;3.47;;;;;;;;;;5057671;28;20040;-87
2022/06/24 02:45:26;;;;;;;9.90;3.35;;;;;;;;;;5038981;28;20397;-88
2022/06/24 02:47:55;;;;;;;14.10;3.95;;;;;;;;;;5057619;28;20400;-89
2022/06/24 02:50:21;;;;;;;15.27;3.50;;;;;;;;;;5039125;28;20036;-90
2022/06/24 02:52:47;;;;;;;13.23;3.97;;;;;;;;;;5039418;28;20021;-89
2022/06/24 02:55:13;;;;;;;10.10;3.22;;;;;;;;;;5057232;28;20029;-90
2022/06/24 02:57:39;;;;;;;10.70;4.00;;;;;;;;;;5057468;28;20025;-90
2022/06/24 03:00:06;;;;;;;15.60;4.15;;;;;;;;;;5039257;28;20127;-88
2022/06/24 03:02:32;;;;;;;12.73;3.90;;;;;;;;;;5057118;28;20053;-88
2022/06/24 03:04:58;;;;;;;9.23;3.65;;;;;;;;;;5038935;28;20025;-91
2022/06/24 03:07:24;;;;;;;10.18;3.80;;;;;;;;;;5057562;28;20061;-89
2022/06/24 03:09:50;;;;;;;17.63;4.35;;;;;;;;;;5039142;28;20059;-90
2022/06/24 03:12:16;;;;;;;8.93;4.20;;;;;;;;;;5039764;28;20025;-91
2022/06/24 03:14:41;;;;;;;17.65;4.97;;;;;;;;;;5061042;28;20469;-91
2022/06/24 03:17:07;;;;;;;8.63;4.00;;;;;;;;;;5039855;28;20044;-87
2022/06/24 03:19:34;;;;;;;10.25;4.38;;;;;;;;;;5058322;28;20021;-90
2022/06/24 03:22:00;;;;;;;10.63;4.50;;;;;;;;;;5058470;28;20063;-91
2022/06/24 03:24:26;;;;;;;10.50;5.10;;;;;;;;;;5040222;28;20041;-89
2022/06/24 03:26:52;;;;;;;9.20;4.10;;;;;;;;;;5040134;28;20100;-88
2022/06/24 03:29:18;;;;;;;9.75;4.68;;;;;;;;;;5057704;28;20055;-90
2022/06/24 03:31:44;;;;;;;16.60;4.68;;;;;;;;;;5040970;28;20021;-88
2022/06/24 03:34:10;;;;;;;10.35;4.68;;;;;;;;;;5040504;28;20029;-90
2022/06/24 03:36:36;;;;;;;10.52;4.95;;;;;;;;;;5041047;28;20228;-90
2022/06/24 03:39:02;;;;;;;15.65;4.82;;;;;;;;;;5068592;28;20025;-96
2022/06/24 03:41:28;;;;;;;10.48;4.70;;;;;;;;;;5078880;28;20077;-95
2022/06/24 03:43:54;;;;;;;16.20;5.45;;;;;;;;;;5061456;28;20009;-95
2022/06/24 03:46:20;;;;;;;12.63;4.90;;;;;;;;;;5061571;28;20027;-95
2022/06/24 03:48:46;;;;;;;13.73;5.07;;;;;;;;;;5078759;28;20033;-96
2022/06/24 03:51:12;;;;;;;10.90;4.53;;;;;;;;;;5061817;28;20025;-96
2022/06/24 03:53:38;;;;;;;9.55;4.40;;;;;;;;;;5079050;28;20017;-95
2022/06/24 03:56:04;;;;;;;13.77;4.90;;;;;;;;;;5061596;28;20009;-96
2022/06/24 03:58:30;;;;;;;9.57;4.65;;;;;;;;;;5061932;28;20038;-94
2022/06/24 04:01:03;;;;;;;16.35;4.50;;;;;;;;;;5062008;28;20012;-96
2022/06/24 04:03:30;;;;;;;13.25;5.50;;;;;;;;;;5061486;28;20093;-94
2022/06/24 04:05:56;;;;;;;14.23;5.70;;;;;;;;;;5062069;28;20036;-96
2022/06/24 04:08:22;;;;;;;14.13;5.15;;;;;;;;;;5062087;28;20025;-95
2022/06/24 04:10:48;;;;;;;11.32;5.00;;;;;;;;;;5061793;28;20021;-93
2022/06/24 04:13:14;;;;;;;15.32;5.05;;;;;;;;;;5078431;28;20013;-94
2022/06/24 04:15:47;;;;;;;15.35;4.43;;;;;;;;;;5079234;28;20009;-96
2022/06/24 04:18:13;;;;;;;6.50;4.28;;;;;;;;;;5183307;22;20062;-90
2022/06/24 04:20:39;;;;;;;8.90;4.82;;;;;;;;;;5082025;28;20039;-95
2022/06/24 04:23:06;;;;;;;11.48;4.95;;;;;;;;;;5081227;28;20147;-89
2022/06/24 04:25:33;;;;;;;7.53;4.38;;;;;;;;;;5081712;28;20060;-94
2022/06/24 04:27:59;;;;;;;7.00;4.40;;;;;;;;;;5098945;28;20005;-95
2022/06/24 04:30:26;;;;;;;11.60;4.00;;;;;;;;;;5098869;28;20088;-95
2022/06/24 04:32:52;;;;;;;5.82;3.80;;;;;;;;;;5098718;28;20016;-94
2022/06/24 04:35:18;;;;;;;8.63;3.65;;;;;;;;;;5098862;28;20009;-95
2022/06/24 04:37:44;;;;;;;8.65;4.00;;;;;;;;;;5081494;28;20020;-95
2022/06/24 04:40:11;;;;;;;11.20;3.97;;;;;;;;;;5098873;28;20086;-94
2022/06/24 04:42:37;;;;;;;9.60;3.90;;;;;;;;;;5098815;28;20080;-96
2022/06/24 04:45:03;;;;;;;7.90;3.67;;;;;;;;;;5098527;28;20016;-95
2022/06/24 04:47:30;;;;;;;9.15;3.58;;;;;;;;;;5098790;28;20008;-96
2022/06/24 04:49:56;;;;;;;6.97;3.40;;;;;;;;;;5082175;28;20032;-95
2022/06/24 04:52:22;;;;;;;7.82;3.22;;;;;;;;;;5098596;28;20020;-94
2022/06/24 04:54:50;;;;;;;8.48;3.47;;;;;;;;;;5081288;28;20074;-90
2022/06/24 04:57:16;;;;;;;5.40;3.08;;;;;;;;;;5080767;28;20103;-88
2022/06/24 04:59:42;;;;;;;9.18;3.38;;;;;;;;;;5080791;28;20040;-87
2022/06/24 05:02:08;;;;;;;9.02;3.72;;;;;;;;;;5080712;28;20017;-88
2022/06/24 05:04:35;;;;;;;11.57;3.40;;;;;;;;;;5067966;28;20029;-86
2022/06/24 05:07:02;;;;;;;10.20;3.78;;;;;;;;;;5056131;28;20016;-87
2022/06/24 05:09:28;;;;;;;6.30;3.15;;;;;;;;;;5073615;28;20031;-87
2022/06/24 05:11:54;;;;;;;10.10;3.60;;;;;;;;;;5056151;28;20494;-88
2022/06/24 05:14:20;;;;;;;10.38;3.38;;;;;;;;;;5059820;28;20029;-88
2022/06/24 05:16:46;;;;;;;8.02;3.28;;;;;;;;;;5055743;28;20113;-88
2022/06/24 05:19:12;;;;;;;8.55;4.25;;;;;;;;;;5072616;28;20111;-87
2022/06/24 05:21:38;;;;;;;5.60;2.95;;;;;;;;;;5055339;28;20020;-87
2022/06/24 05:24:04;;;;;;;8.85;3.20;;;;;;;;;;5058372;28;20047;-88
2022/06/24 05:26:30;;;;;;;6.90;3.05;;;;;;;;;;5073578;28;20387;-88
2022/06/24 05:28:56;;;;;;;12.52;3.30;;;;;;;;;;5073349;28;20025;-89
2022/06/24 05:31:22;;;;;;;4.40;3.05;;;;;;;;;;5054573;28;20040;-90
2022/06/24 05:33:48;;;;;;;8.65;3.05;;;;;;;;;;5072684;28;20392;-89
2022/06/24 05:36:14;;;;;;;7.78;3.72;;;;;;;;;;5054991;28;20021;-89
2022/06/24 05:38:41;;;;;;;7.70;3.42;;;;;;;;;;5073008;28;20457;-89
2022/06/24 05:41:07;;;;;;;12.30;3.78;;;;;;;;;;5054997;28;20481;-90
2022/06/24 05:43:33;;;;;;;8.52;3.88;;;;;;;;;;5072431;28;20040;-90
2022/06/24 05:45:59;;;;;;;7.57;3.30;;;;;;;;;;5072743;28;20488;-90
2022/06/24 05:48:27;;;;;;;9.45;3.25;;;;;;;;;;5054421;28;20083;-91
2022/06/24 05:50:53;;;;;;;7.30;3.80;;;;;;;;;;5054456;28;20025;-88
2022/06/24 05:56:07;;;;;;;3.83;2.72;;;;;;;;;;5072757;28;20047;-89
2022/06/24 05:58:33;;;;;;;3.13;2.33;;;;;;;;;;5054497;28;20510;-90
2022/06/24 06:00:59;;;;;;;5.70;2.75;;;;;;;;;;5072456;28;20036;-90
2022/06/24 06:03:26;;;;;;;6.85;3.08;;;;;;;;;;5054963;28;20024;-90
2022/06/24 06:05:52;;;;;;;4.75;2.55;;;;;;;;;;5054546;28;20024;-91
2022/06/24 06:08:18;;;;;;;6.03;2.65;;;;;;;;;;5073027;28;20035;-90
2022/06/24 06:10:47;;;;;;;3.40;2.20;;;;;;;;;;5054713;28;20052;-89
2022/06/24 06:13:14;;;;;;;3.70;2.00;;;;;;;;;;5054490;28;20024;-90
2022/06/24 06:15:43;;;;;;;5.30;2.50;;;;;;;;;;5072945;28;20055;-90
2022/06/24 06:18:09;;;;;;;7.97;2.88;;;;;;;;;;5054683;28;20067;-90
2022/06/24 06:20:35;;;;;;;3.00;2.03;;;;;;;;;;5050915;28;20064;-90
2022/06/24 06:23:01;;;;;;;4.35;2.20;;;;;;;;;;5053538;28;20350;-90
2022/06/24 06:25:27;;;;;;;9.90;2.80;;;;;;;;;;5052814;28;20485;-89
2022/06/24 06:27:53;;;;;;;3.55;2.70;;;;;;;;;;5051398;28;20040;-89
2022/06/24 06:30:19;;;;;;;4.82;2.95;;;;;;;;;;5053510;28;20031;-90
2022/06/24 06:32:48;;;;;;;9.05;2.63;;;;;;;;;;5052915;28;20052;-90
2022/06/24 06:35:14;;;;;;;8.88;2.92;;;;;;;;;;5051991;28;20149;-90
2022/06/24 06:37:40;;;;;;;8.18;3.05;;;;;;;;;;5054693;28;20435;-89
2022/06/24 06:40:07;;;;;;;6.90;2.20;;;;;;;;;;5054620;28;20121;-89
2022/06/24 06:42:33;;;;;;;10.98;2.75;;;;;;;;;;5056871;28;20028;-90
2022/06/24 06:45:00;;;;;;;7.43;3.13;;;;;;;;;;5059601;28;20017;-89
2022/06/24 06:47:26;;;;;;;7.43;2.50;;;;;;;;;;5056947;28;20051;-90
2022/06/24 06:49:52;;;;;;;5.05;2.45;;;;;;;;;;5059732;28;20028;-89
2022/06/24 06:52:18;;;;;;;8.52;2.97;;;;;;;;;;5058752;28;20155;-89
2022/06/24 06:54:44;;;;;;;3.17;1.95;;;;;;;;;;5058700;28;20040;-89
2022/06/24 06:57:10;;;;;;;5.03;2.15;;;;;;;;;;5076516;28;20028;-89
2022/06/24 06:59:36;;;;;;;6.57;2.30;;;;;;;;;;5063489;28;20138;-88
2022/06/24 07:02:02;;;;;;;4.18;1.92;;;;;;;;;;5058529;28;20423;-88
2022/06/24 07:04:28;;;;;;;4.68;1.67;;;;;;;;;;5065732;28;20021;-90
2022/06/24 07:06:54;;;;;;;4.38;1.77;;;;;;;;;;5099592;28;20029;-90
2022/06/24 07:09:20;;;;;;;3.65;1.80;;;;;;;;;;5081870;28;20024;-89
2022/06/24 07:11:46;;;;;;;2.70;1.60;;;;;;;;;;5098031;28;20048;-92
2022/06/24 07:14:12;;;;;;;9.52;1.80;;;;;;;;;;5091621;28;20028;-89
2022/06/24 07:16:38;;;;;;;2.83;1.80;;;;;;;;;;5057626;28;20021;-89
2022/06/24 07:19:04;;;;;;;2.58;1.52;;;;;;;;;;5054313;28;20033;-89
2022/06/24 07:21:30;;;;;;;6.40;1.45;;;;;;;;;;5049819;28;20028;-89
2022/06/24 07:23:56;;;;;;;6.40;1.40;;;;;;;;;;5075102;28;20047;-89
2022/06/24 07:26:22;;;;;;;5.60;1.55;;;;;;;;;;5075220;28;20028;-89
2022/06/24 07:28:48;;;;;;;4.25;1.63;;;;;;;;;;5057327;28;20025;-88
2022/06/24 07:31:19;;;;;;;6.93;1.55;;;;;;;;;;5057070;28;20031;-88
2022/06/24 07:33:48;;;;;;;5.53;1.65;;;;;;;;;;5074367;28;20503;-89
2022/06/24 07:36:14;;;;;;;3.05;1.30;;;;;;;;;;5074740;28;20068;-90
2022/06/24 07:38:40;;;;;;;8.35;1.70;;;;;;;;;;5056394;28;20415;-90
2022/06/24 07:41:08;;;;;;;2.30;1.45;;;;;;;;;;5075091;28;20035;-88
2022/06/24 07:43:36;;;;;;;3.45;1.35;;;;;;;;;;5075070;28;20017;-89
2022/06/24 07:46:02;;;;;;;3.40;1.42;;;;;;;;;;5056369;28;20048;-89
2022/06/24 07:48:28;;;;;;;4.10;1.40;;;;;;;;;;5074553;28;20070;-88
2022/06/24 07:50:54;;;;;;;6.43;2.05;;;;;;;;;;5058470;28;20016;-90
2022/06/24 07:53:21;;;;;;;3.70;1.52;;;;;;;;;;5056882;28;20035;-88
2022/06/24 07:58:31;;;;;;;5.60;1.50;;;;;;;;;;5074375;28;20062;-90
2022/06/24 08:00:57;;;;;;;5.28;1.38;;;;;;;;;;5074181;28;20074;-89
2022/06/24 08:03:23;;;;;;;7.25;1.40;;;;;;;;;;5073902;28;20138;-90
2022/06/24 08:05:49;;;;;;;3.45;1.77;;;;;;;;;;5074447;28;20039;-90
2022/06/24 08:08:21;;;;;;;5.70;1.80;;;;;;;;;;5074212;28;20024;-90
2022/06/24 08:10:52;;;;;;;5.25;1.30;;;;;;;;;;5054461;28;20558;-92
2022/06/24 08:13:24;;;;;;;3.80;1.40;;;;;;;;;;5055855;28;20463;-90
2022/06/24 08:15:53;;;;;;;3.65;1.70;;;;;;;;;;5053295;28;20039;-88
2022/06/24 08:18:23;;;;;;;1.70;1.30;;;;;;;;;;5056299;28;20035;-89
2022/06/24 08:24:10;;;;;;;4.93;1.83;;;;;;;;;;5073946;28;20066;-90
2022/06/24 08:26:36;;;;;;;6.72;1.45;;;;;;;;;;5055881;28;20412;-91
2022/06/24 08:29:05;;;;;;;3.10;1.40;;;;;;;;;;5056000;28;20059;-90
2022/06/24 08:31:39;;;;;;;1.63;1.30;;;;;;;;;;5073825;28;20046;-90
2022/06/24 08:41:56;;;;;;;4.10;1.52;;;;;;;;;;4992846;28;20051;-91
2022/06/24 08:44:23;;;;;;;3.85;1.92;;;;;;;;;;4993953;28;20030;-90
2022/06/24 08:46:56;;;;;;;9.70;1.40;;;;;;;;;;4994106;28;20015;-89
2022/06/24 08:49:22;;;;;;;2.63;1.60;;;;;;;;;;4992830;28;20074;-90
2022/06/24 08:51:49;;;;;;;3.38;1.50;;;;;;;;;;4994042;28;20041;-90
2022/06/24 08:54:20;;;;;;;5.38;1.70;;;;;;;;;;4993916;28;20540;-87
2022/06/24 08:56:46;;;;;;;3.58;1.40;;;;;;;;;;4994196;28;20026;-90
2022/06/24 08:59:24;;;;;;;2.88;1.52;;;;;;;;;;4992398;28;20030;-89
2022/06/24 09:01:50;;;;;;;4.65;1.58;;;;;;;;;;4991332;28;20125;-91
2022/06/24 09:04:17;;;;;;;1.80;1.10;;;;;;;;;;4993424;28;20022;-91
2022/06/24 09:06:43;;;;;;;2.65;1.33;;;;;;;;;;4995776;28;20474;-87
2022/06/24 09:09:10;;;;;;;3.35;1.42;;;;;;;;;;4989319;28;20409;-88
2022/06/24 09:11:37;;;;;;;6.32;1.33;;;;;;;;;;5001754;28;20109;-89
2022/06/24 09:14:03;;;;;;;3.75;1.10;;;;;;;;;;4992867;28;20482;-90
2022/06/24 09:16:29;;;;;;;3.40;1.30;;;;;;;;;;4991852;28;20023;-90
2022/06/24 09:19:00;;;;;;;3.38;1.60;;;;;;;;;;4991718;28;20034;-90
2022/06/24 09:21:32;;;;;;;2.67;1.20;;;;;;;;;;4986641;28;20026;-90
2022/06/24 09:23:59;;;;;;;2.13;1.40;;;;;;;;;;4993671;28;20482;-91
2022/06/24 09:26:37;;;;;;;2.53;1.10;;;;;;;;;;4991786;28;20045;-91
2022/06/24 09:29:05;;;;;;;3.20;1.25;;;;;;;;;;4981021;28;20486;-92
2022/06/24 09:31:34;;;;;;;5.90;1.35;;;;;;;;;;4996308;28;20027;-91
2022/06/24 09:34:08;;;;;;;1.40;0.47;;;;;;;;;;5001004;28;20109;-91
2022/06/24 09:36:35;;;;;;;1.23;0.80;;;;;;;;;;4997055;28;20066;-92
2022/06/24 09:39:03;;;;;;;2.15;1.08;;;;;;;;;;4994869;28;20026;-90
2022/06/24 09:41:29;;;;;;;2.28;1.25;;;;;;;;;;4993258;28;20109;-90
2022/06/24 09:44:12;;;;;;;5.40;1.05;;;;;;;;;;4992275;28;20030;-91
2022/06/24 09:46:41;;;;;;;6.05;1.05;;;;;;;;;;4992672;28;20486;-89
2022/06/24 10:23:47;;;;;;;2.78;1.42;;;;;;;;;;5708741;23;20094;-89
2022/06/24 10:26:37;;;;;;;1.67;1.00;;;;;;;;;;5077041;28;20507;-91
2022/06/24 10:29:03;;;;;;;5.38;1.13;;;;;;;;;;5082415;28;20107;-89
2022/06/24 10:34:29;;;;;;;0.93;0.85;;;;;;;;;;5076525;28;20050;-89
2022/06/24 10:37:04;;;;;;;1.52;1.08;;;;;;;;;;5076502;28;20535;-91
2022/06/24 10:39:31;;;;;;;2.83;1.33;;;;;;;;;;5075656;28;20074;-91
2022/06/24 10:42:00;;;;;;;3.67;1.20;;;;;;;;;;5076685;28;20480;-90
2022/06/24 10:44:35;;;;;;;2.55;1.00;;;;;;;;;;5077672;28;20021;-92
2022/06/24 10:47:14;;;;;;;2.78;1.50;;;;;;;;;;5078803;28;20029;-91
2022/06/24 10:49:56;;;;;;;1.33;0.95;;;;;;;;;;5076198;28;20383;-90
2022/06/24 10:53:03;;;;;;;2.92;0.70;;;;;;;;;;5077236;28;20024;-91
2022/06/24 10:55:47;;;;;;;1.30;1.00;;;;;;;;;;5076592;28;20488;-89
2022/06/24 10:58:17;;;;;;;2.33;0.95;;;;;;;;;;5076268;28;20032;-89
2022/06/24 11:00:53;;;;;;;1.15;0.75;;;;;;;;;;5076411;28;20025;-88
2022/06/24 11:03:24;;;;;;;3.13;0.98;;;;;;;;;;5071910;28;20029;-90
2022/06/24 11:05:51;;;;;;;;;;;;;;;;;;5072995;28;20481;-92
2022/06/24 11:11:46;;;;;;;0.88;0.77;;;;;;;;;;5056264;28;20073;-92
2022/06/24 11:14:28;;;;;;;1.35;0.80;;;;;;;;;;5055638;28;20029;-91
2022/06/24 11:19:51;;;;;;;1.42;0.82;;;;;;;;;;5055857;28;20029;-92
2022/06/24 11:22:18;;;;;;;0.93;0.82;;;;;;;;;;5070460;28;20028;-89
2022/06/24 11:24:50;;;;;;;3.92;1.15;;;;;;;;;;5070196;28;20397;-90
2022/06/24 11:27:16;;;;;;;2.20;1.05;;;;;;;;;;5055217;28;20021;-89
2022/06/24 11:29:50;;;;;;;3.92;1.10;;;;;;;;;;5055006;28;20037;-90
2022/06/24 11:32:16;;;;;;;1.25;0.85;;;;;;;;;;5070434;28;20040;-90
2022/06/24 11:34:44;;;;;;;1.92;0.63;;;;;;;;;;5070178;28;20440;-90
2022/06/24 11:37:10;;;;;;;1.85;0.95;;;;;;;;;;5055108;28;20048;-91
2022/06/24 11:39:36;;;;;;;1.25;0.80;;;;;;;;;;5055242;28;20025;-91
2022/06/24 11:42:02;;;;;;;0.70;0.70;;;;;;;;;;5070590;28;20036;-90
2022/06/24 11:50:42;;;;;;;1.70;0.88;;;;;;;;;;5037453;28;20043;-90
2022/06/24 11:56:11;;;;;;;4.13;1.10;;;;;;;;;;5054587;28;20416;-89
2022/06/24 11:58:37;;;;;;;4.05;0.80;;;;;;;;;;5054408;28;20393;-89
2022/06/24 12:01:03;;;;;;;5.13;0.82;;;;;;;;;;5056626;28;20109;-89
2022/06/24 12:03:29;;;;;;;1.13;0.80;;;;;;;;;;5072603;28;20431;-90
2022/06/24 12:05:55;;;;;;;4.00;0.70;;;;;;;;;;5072838;28;20021;-90
2022/06/24 12:08:23;;;;;;;0.73;0.73;;;;;;;;;;5073804;28;20017;-90
2022/06/24 12:10:54;;;;;;;3.03;1.20;;;;;;;;;;5072120;28;20497;-89
2022/06/24 12:13:38;;;;;;;2.35;0.70;;;;;;;;;;5073953;28;20029;-89
2022/06/24 12:16:10;;;;;;;1.85;0.70;;;;;;;;;;5072790;28;20469;-89
2022/06/24 12:18:37;;;;;;;1.38;0.70;;;;;;;;;;5074142;28;20025;-88
2022/06/24 12:21:07;;;;;;;4.90;0.82;;;;;;;;;;5053187;28;20562;-89
2022/06/24 12:23:44;;;;;;;1.38;0.68;;;;;;;;;;5052182;28;20074;-89
2022/06/24 12:26:14;;;;;;;2.58;0.60;;;;;;;;;;5053617;28;20029;-90
2022/06/24 12:28:41;;;;;;;3.67;0.70;;;;;;;;;;5068640;28;20024;-88
2022/06/24 12:31:08;;;;;;;1.58;0.60;;;;;;;;;;5072132;28;20025;-87
2022/06/24 12:33:35;;;;;;;1.20;0.90;;;;;;;;;;5086043;28;20020;-88
2022/06/24 12:36:09;;;;;;;0.77;0.60;;;;;;;;;;5083215;28;20028;-88
2022/06/24 12:38:35;;;;;;;1.52;0.70;;;;;;;;;;5053940;28;20025;-88
2022/06/24 12:41:15;;;;;;;2.90;0.88;;;;;;;;;;5051886;28;20075;-90
2022/06/24 12:44:10;;;;;;;0.98;0.88;;;;;;;;;;5052306;28;20025;-89
2022/06/24 12:46:36;;;;;;;1.08;0.60;;;;;;;;;;5040893;28;20025;-86
2022/06/24 12:52:07;;;;;;;1.10;0.70;;;;;;;;;;5053896;28;20102;-88
2022/06/24 12:54:33;;;;;;;1.08;0.57;;;;;;;;;;5053871;28;20021;-87
2022/06/24 12:56:59;;;;;;;0.85;0.68;;;;;;;;;;5053978;28;20024;-87
2022/06/24 12:59:29;;;;;;;3.55;1.02;;;;;;;;;;5058212;28;20036;-88
2022/06/24 13:01:56;;;;;;;2.67;0.80;;;;;;;;;;5086931;28;20036;-89
2022/06/24 13:04:22;;;;;;;1.55;0.60;;;;;;;;;;5094351;28;20024;-88
2022/06/24 13:06:48;;;;;;;3.53;0.90;;;;;;;;;;5087471;28;20024;-87
2022/06/24 13:09:14;;;;;;;1.67;0.80;;;;;;;;;;5083176;28;20025;-87
2022/06/24 13:11:40;;;;;;;1.27;0.80;;;;;;;;;;5075763;28;20031;-87
2022/06/24 13:14:06;;;;;;;2.90;0.70;;;;;;;;;;5078723;28;20020;-89
2022/06/24 13:16:32;;;;;;;2.10;0.88;;;;;;;;;;5072179;28;20487;-87
2022/06/24 13:18:58;;;;;;;3.90;1.05;;;;;;;;;;5072462;28;20035;-86
2022/06/24 13:21:24;;;;;;;3.22;0.80;;;;;;;;;;5068064;28;20028;-86
2022/06/24 13:23:50;;;;;;;1.77;0.70;;;;;;;;;;5053837;28;20033;-88
2022/06/24 13:26:17;;;;;;;4.25;0.90;;;;;;;;;;5057691;28;20046;-87
2022/06/24 13:28:43;;;;;;;3.05;1.05;;;;;;;;;;5072260;28;20024;-89
2022/06/24 13:31:09;;;;;;;1.25;0.60;;;;;;;;;;5072093;28;20078;-87
2022/06/24 13:33:35;;;;;;;1.48;0.70;;;;;;;;;;5072015;28;20113;-87
2022/06/24 13:36:01;;;;;;;3.00;0.80;;;;;;;;;;5073332;28;20112;-88
2022/06/24 13:38:27;;;;;;;1.40;1.00;;;;;;;;;;5073566;28;20089;-87
2022/06/24 13:40:53;;;;;;;2.17;0.82;;;;;;;;;;5071461;28;20064;-90
2022/06/24 13:43:20;;;;;;;1.95;0.90;;;;;;;;;;5071192;28;20400;-91
2022/06/24 13:45:46;;;;;;;1.00;0.80;;;;;;;;;;5074608;28;20078;-91
2022/06/24 13:48:13;;;;;;;1.70;0.55;;;;;;;;;;5075142;28;20115;-89
2022/06/24 13:50:39;;;;;;;2.88;0.80;;;;;;;;;;5076434;28;20083;-89
2022/06/24 13:53:05;;;;;;;3.13;0.98;;;;;;;;;;5075163;28;20051;-90
2022/06/24 13:55:32;;;;;;;2.85;0.75;;;;;;;;;;5075284;28;20128;-89
2022/06/24 13:57:58;;;;;;;2.08;0.63;;;;;;;;;;5077273;28;20025;-88
2022/06/24 14:00:25;;;;;;;2.80;0.80;;;;;;;;;;5076591;28;20032;-88
2022/06/24 14:02:51;;;;;;;3.65;0.50;;;;;;;;;;5076794;28;20028;-88
2022/06/24 14:05:17;;;;;;;2.22;0.80;;;;;;;;;;5077195;28;20040;-89
2022/06/24 14:07:43;;;;;;;1.58;0.60;;;;;;;;;;5077406;28;20400;-87
2022/06/24 14:10:09;;;;;;;1.35;0.70;;;;;;;;;;5076882;28;20056;-88
2022/06/24 14:12:35;;;;;;;2.13;0.80;;;;;;;;;;5076414;28;20024;-89
2022/06/24 14:15:02;;;;;;;1.15;0.73;;;;;;;;;;5075443;28;20025;-87
2022/06/24 14:17:28;;;;;;;1.05;0.95;;;;;;;;;;5075523;28;20020;-88
2022/06/24 14:19:54;;;;;;;5.28;2.97;;;;;;;;;;5076828;28;20115;-88
2022/06/24 14:22:20;;;;;;;4.78;2.53;;;;;;;;;;5075247;28;20131;-88
2022/06/24 14:24:46;;;;;;;4.30;3.03;;;;;;;;;;5076287;28;20046;-87
2022/06/24 14:27:12;;;;;;;2.92;1.30;;;;;;;;;;5075447;28;20025;-87
2022/06/24 14:29:38;;;;;;;1.52;1.42;;;;;;;;;;5075060;28;20067;-86
2022/06/24 14:32:05;;;;;;;17.98;1.88;;;;;;;;;;5069308;28;20025;-88
2022/06/24 14:34:32;;;;;;;1.83;0.70;;;;;;;;;;5058715;28;20322;-89
2022/06/24 14:36:59;;;;;;;5.80;1.60;;;;;;;;;;5070282;28;20342;-90
2022/06/24 14:42:09;;;;;;;3.33;0.80;;;;;;;;;;5076364;28;20036;-89
2022/06/24 14:44:35;;;;;;;2.28;1.20;;;;;;;;;;5076256;28;20029;-89
2022/06/24 14:47:25;;;;;;;3.75;1.08;;;;;;;;;;5076020;28;20025;-90
2022/06/24 16:14:12;;;;;;;6.78;2.10;;;;;;;;;;5033849;28;20052;-89
2022/06/24 16:16:38;;;;;;;2.70;2.08;;;;;;;;;;5016231;28;20018;-88
2022/06/24 16:19:07;;;;;;;1.95;1.48;;;;;;;;;;5016108;28;20083;-88
2022/06/24 16:21:33;;;;;;;2.53;1.92;;;;;;;;;;5015728;28;20496;-89
2022/06/24 16:24:06;;;;;;;3.20;1.50;;;;;;;;;;5015135;28;20413;-88
2022/06/24 16:29:19;;;;;;;2.10;1.77;;;;;;;;;;5014477;28;20084;-87
2022/06/24 16:31:45;;;;;;;1.35;1.25;;;;;;;;;;5013089;28;20029;-88
2022/06/24 16:34:11;;;;;;;2.15;1.45;;;;;;;;;;5015668;28;20104;-87
2022/06/24 16:36:37;;;;;;;1.42;1.33;;;;;;;;;;5027648;28;20025;-87
2022/06/24 16:39:05;;;;;;;1.40;1.30;;;;;;;;;;5034084;28;20052;-86
2022/06/24 16:41:36;;;;;;;2.45;1.25;;;;;;;;;;5012843;28;20029;-86
2022/06/24 16:44:04;;;;;;;2.08;1.25;;;;;;;;;;5012754;28;20641;-86
2022/06/24 16:46:31;;;;;;;2.65;1.60;;;;;;;;;;5013038;28;20022;-87
2022/06/24 16:49:03;;;;;;;3.15;1.65;;;;;;;;;;5012651;28;20113;-87
2022/06/24 16:51:29;;;;;;;1.60;1.50;;;;;;;;;;5013015;28;20168;-86
2022/06/24 16:53:55;;;;;;;2.00;1.30;;;;;;;;;;5014468;28;20022;-88
2022/06/24 16:56:24;;;;;;;1.83;1.30;;;;;;;;;;5023617;28;20172;-88
2022/06/24 16:58:50;;;;;;;2.40;1.58;;;;;;;;;;5017673;28;20034;-87
2022/06/24 17:01:16;;;;;;;5.45;1.52;;;;;;;;;;5012401;28;20069;-89
2022/06/24 17:03:42;;;;;;;1.48;1.38;;;;;;;;;;5012208;28;20391;-87
2022/06/24 17:06:09;;;;;;;1.55;1.30;;;;;;;;;;5012239;28;20370;-88
2022/06/24 17:08:36;;;;;;;2.50;1.52;;;;;;;;;;5012177;28;20041;-88
2022/06/24 17:11:03;;;;;;;3.67;1.67;;;;;;;;;;5013208;28;20046;-87
2022/06/24 17:13:32;;;;;;;5.53;1.83;;;;;;;;;;5011605;28;20150;-86
2022/06/24 17:15:59;;;;;;;2.90;1.80;;;;;;;;;;5013396;28;20022;-88
2022/06/24 17:18:25;;;;;;;2.60;1.50;;;;;;;;;;5013295;28;20026;-87
2022/06/24 17:20:52;;;;;;;7.07;1.85;;;;;;;;;;5014584;28;20025;-88
2022/06/24 17:23:18;;;;;;;2.17;1.60;;;;;;;;;;5033394;28;20022;-88
2022/06/24 17:25:47;;;;;;;2.10;1.60;;;;;;;;;;5033156;28;20025;-88
2022/06/24 17:28:13;;;;;;;1.70;1.60;;;;;;;;;;5015286;28;20096;-88
2022/06/24 17:30:40;;;;;;;2.90;1.55;;;;;;;;;;5015761;28;20100;-87